Timeline UpdatesTrip UpdatesNews PostsPvt PostsTravel TipsAdmin PostsConv PostsFollowed PostsChat RequestsBlog PostsPNR Posts

Disclaimer
Search
 
 
Fri Sep 19, 2014 21:21:04 ISTHomeTrainsΣChainsAtlasPNRForumGalleryNewsFAQTripsMembersLoginFeedback
No Recent News for this Train
Other Trains in the News **new
Latest...
.
Fri Dec 13, 2013 (03:40PM)
⇐ Return Journey: Train# 12834

12833/Ahmedabad- Howrah SF Express

Time-Table HAS CHANGED.
Sep 03 (11:10AM)
Change Departure Station:
Change Arrival Station:
Post a Train Travel TipPost a Train Travel Tip **new
Post a Comment/Question/Picture/VideoPost a Comment/Question/Picture/Video
Pantry/Catering
✓ Pantry Car Avbl
✓ Catering Avbl
RSA - Rake Sharing
Rake/Coach Composition
LOCO(SRC WAP-4)-SLR-LD-GEN-A2-A1-B2-B1-S13-S12-PC-S11-S10-S9-S8-S7-S6-S5-S4-S3-S2-S1-GEN-SLR As per Entry# 262159
Loco
Loco: SRC WAP 4 ... Entry# 289462
News    PNR    Forum    Time-Table    Availability    Fare Chart    Map    Arr/Dep History    Trips    Gallery    ΣChains    X/O    Timeline    
Travel Time: 11h 42m    14 halts    Distance: 677 km    Avg Speed: 57 km/hr
Type: SuperFast
Zone: SER/South Eastern
Departs @ 01:48
Platform# ???
SMTWTFS
Naila/NIA 
Arrives @ 13:30
Platform# 17
SMTWTFS
Kolkata Howrah Junction/HWH 

14 halts. 111 intermediate Stations between Naila and Kolkata Howrah Junction

Show ALL intermediate Stations  Show Old Time-Table

#CodeStation NameX/OArrivesAvgDepartsAvgHaltPFDay#KmSpeedElevZoneAddress
1ADIAhmedabad Junction (12)  -23:55-61-1411.62451mWRAhmedabad, Gujarat
2MANManinagar (2)X  00:03-00:05-2m12-1408.46950mWRAhmadabad, Gujarat
3NDNadiad Junction (4)X  00:42-00:44-2m12-1366.06237mWRNadiad, Gujarat
4ANNDAnand Junction (6)X  01:02-01:04-2m12-1347.54944mWRAnand, Gujarat
5BRCVadodara Junction (7)  01:48-01:55-7m12-1311.88836mWRVadodara 390005, Gujarat
6BHBharuch Junction (5)X  02:43-02:45-2m42-1241.25919mWRBharuch, Gujarat
7STSurat (4)X  03:45-03:55-10m32-1182.03419mWRSurat 395001, Gujarat
8UDNUdhna Junction (3)  04:02-04:04-2m32-1178.06316mWRUdhna 394210, Gujarat
9BIYBardoli (2)  04:30-04:32-2m12-1150.85935mWRNear Bardoli Sugar Factory Bardoli, Gujarat
10MIDMadhi (1)X  04:47-04:49-2m12-1135.95345mWRMadhi, Gujarat
11VYAVyara (2)X  05:06-05:08-2m22-1121.05590mWRVyara, Gujarat
12NWUNavapur (2)X  05:54-05:56-2m--2-1079.149124mWRNavapur, Gujarat
13NDBNandurbar (3)  07:07-07:15-8m22-1021.246203mWRNandurbar, Maharashtra
14DDEDondaicha (2)  08:00-08:02-2m12-986.845163mWRDondaicha, Maharashtra
15SNKSindkheda (1)  08:28-08:30-2m12-967.453178mWRState Highway 11, Maharashtra
16ANAmalner (2)  09:17-09:20-3m12-925.862188mWRAmalner, Maharashtra
17DXGDharangaon (2)  09:44-09:46-2m12-900.936217mWRDharangaon, Maharashtra
18JLJalgaon Junction (4)X  10:38 10:35-10:40-2 5m12-871.272213mCRJalgaon 425001, Maharashtra
19BSLBhusaval Junction (8)O  11:05 11:00-11:20 11:10-15 10m12-847.170208mCRBhusaval 425201, Maharashtra
20MKUMalkapur (2)X  12:06 11:53-12:08 11:55-2m22-797.273252mCRMalkapur, Maharashtra
21NNNandura (2)  12:28 12:18-12:30 12:20-2m22-769.392267mCRNandura, Maharashtra
22JMJalamb Junction (3)  12:38 12:28-12:40 12:30-2m12-757.093259mCRJalamb, Maharashtra
23SEGShegaon (2)  12:48 12:38-12:50 12:40-2m22-744.689281mCRShegaon 444203, Maharashtra
24AKAkola Junction (7)  13:15 13:05-13:20 13:10-5m22-707.580284mCRAkola-444001, Maharashtra
25MZRMurtizapur (3)  13:58 13:38-14:00 13:40-2m12-670.336303mCRMurtajapur, Maharashtra
26BDBadnera Junction (4)  14:55 14:50-15:00 14:55-5m22-628.569335mCRBadnera (Amravati) 444701, Maharashtra
27CNDChandur (2)  15:20-15:22-2m12-599.777331mCRAmravati Distt, Maharashtra
28DMNDhamangaon (2)X  15:35-15:37-2m22-583.180300mCRDhamangaon, Maharashtra
29PLOPulgaon Junction (3)X  15:52-15:54-2m12-563.168273mCRPulgaon, Maharashtra
30WRWardha Junction (4)  16:20-16:23-3m32-533.675289mCRWardha 442001, Maharashtra
31AJNIAjni (3)  17:24-17:26-2m12-457.78310mCRNagpur 440003, Maharashtra
32NGPNagpur Junction (8)X  17:50-18:00-10m12-454.748314mCRNagpur 440001, Maharashtra
33KPKamptee (3)X  18:18-18:20-2m--2-440.496290mSECRKamptee, Maharashtra
34BRDBhandara Road (3)X  18:50-18:52-2m--2-392.477266mSECRState Highway 252 Bhandara District, Maharashtra
35TMRTumsar Road (3)X  19:06-19:08-2m--2-374.581267mSECRBhandara, Maharashtra
36TROTirora (3)  19:23-19:25-2m--2-354.157282mSECRDist Gondia, Maharashtra
37GGondia Junction (7)X  19:56-19:58-2m22-324.891316mSECRGondia 441601, Maharashtra
38AGNAmgaon (2)X  20:13-20:15-2m--2-302.072317mSECRGondia, Maharashtra
39DGGDongargarh (2)X  20:57-20:59-2m--2-251.586 SECRDongargarh, Chhattisgarh
40RJNRaj Nandgaon (3)X  21:21-21:23-2m12-220.039313mSECRRajnandgaon, Chhattisgarh
41DURGDurg Junction (6)  22:10-22:15-5m32-189.549299mSECRPh: 91-788-2322059, Chhattisgarh
42BPHBBhilai Power House (3)X  22:24 22:26-22:26 22:28-2m12-180.662312mSECRBhilai, Chhattisgarh
43RRaipur Junction (6)X  22:55-23:05-10m62-152.674297mSECRRaipur, Chhattisgarh
44TLDTilda (3)  23:34 23:36-23:36 23:38-2m--2-114.487 SECRBanjari Rd, Chhattisgarh
45BYTBhatapara (4)  23:54 23:56-23:56 23:58-2m--2-88.449270mSECRBanjari Road, Chhattisgarh
46BSPBilaspur Junction (8)X  00:55-01:10-15m23-42.278271mSECRBilaspur, Chhattisgarh
47AKTAkaltara (4)  01:31-01:33-2m--3-14.969284mSECRDist. Janjgir Champa, Chhattisgarh
48NIANaila»X  01:46-01:48-2m--30.054273mSECRJanjgir, Chhattisgarh
49CPHChampa Junction (3)X  02:00-02:03-3m--310.985264mSECRNational Highway 200 (07819-245767), Chhattisgarh
50BUABaradwar  02:13 02:14-02:15 02:16-2m--326.491 SECRJanjgir-Champa, Chhattisgarh
51KHSKharsia  02:36-02:38-2m--356.685 SECRNational Highway 200, Chhattisgarh
52RIGRaigarh (3)XO  03:02-03:07-5m--390.690220mSECRRaigarh, Chhattisgarh
53BPHBelpahar  03:41-03:43-2m--3141.753 SECRBelpahar, Odisha
54BRJNBrajrajnagarX  03:53-03:55-2m--3150.611212mSECRBrajrajnagar, Odisha
55JSGJharsuguda Junction (5)X  05:00-05:02-2m23162.281236mSERJharsuguda, Odisha
56BMBBamra (3)  05:29-05:31-2m--3198.880259mSERBamra PH : 06642-229268, Odisha
57GPRaj Gangpur (3)X  05:57-05:59-2m23233.454237mSERRaj Ganpur, Odisha
58ROURourkela Junction (5)  06:32-06:47-15m13263.275198mSERRourkela, Odisha
59CKPChakradharpur (3)X  08:08-08:15-7m23364.253235mSERChakradharpur (West Singhbhum), Jharkhand
60TATATatanagar Junction (5)  09:20 09:25-09:35-15 10m53426.579164mSER91-657-2423026, Jharkhand
61KGPKharagpur Junction (10)  11:17-11:22-5m63561.67342mSERKharagpur, West Bengal
62SRCKolkata Santragachi Junction (6)  12:50 12:51-12:52 12:53-2m63669.2127mSERDist: Howrah - 711104, West Bengal
63HWHKolkata Howrah Junction (23)•  13:30--173676.6-10mERHowrah 711101, West Bengal
Scroll to Top
Scroll to Bottom